Time;durP1;ratioP1;P1;durP2;ratioP2;P2;SDS_P1;SDS_P2;PMS_P1;PMS_P2;Temp;Humidity;BMP_temperature;BMP_pressure;BME280_temperature;BME280_humidity;BME280_pressure;Samples;Min_cycle;Max_cycle;Signal;HPM_P1;HPM_P2
2022/05/10 00:02:15;;;;;;;15.63;7.68;;;14.60;99.90;;;;;;5114679;28;20456;-75
2022/05/10 00:04:47;;;;;;;15.57;8.07;;;14.60;99.90;;;;;;5113848;28;20529;-74
2022/05/10 00:07:12;;;;;;;12.52;7.68;;;14.50;99.90;;;;;;5114600;28;20027;-74
2022/05/10 00:09:38;;;;;;;11.65;8.00;;;14.50;99.90;;;;;;5114580;28;20101;-75
2022/05/10 00:12:05;;;;;;;17.15;8.15;;;14.50;99.90;;;;;;5096222;28;20110;-73
2022/05/10 00:14:30;;;;;;;13.60;8.02;;;14.40;99.90;;;;;;5096169;28;20493;-73
2022/05/10 00:16:57;;;;;;;15.85;8.77;;;14.40;99.90;;;;;;5114492;28;20102;-73
2022/05/10 00:19:27;;;;;;;17.10;8.73;;;14.40;99.90;;;;;;5096095;28;20023;-73
2022/05/10 00:21:53;;;;;;;14.32;8.75;;;14.20;99.90;;;;;;5114441;28;20418;-73
2022/05/10 00:24:19;;;;;;;11.98;8.40;;;14.20;99.90;;;;;;5114010;28;20023;-75
2022/05/10 00:26:45;;;;;;;15.13;8.38;;;14.10;99.90;;;;;;5113984;28;20177;-76
2022/05/10 00:29:12;;;;;;;12.90;8.02;;;14.10;99.90;;;;;;5114133;28;20117;-75
2022/05/10 00:31:38;;;;;;;12.05;8.18;;;14.00;99.90;;;;;;5114157;28;20488;-74
2022/05/10 00:34:04;;;;;;;20.60;9.45;;;13.90;99.90;;;;;;5095862;28;20026;-73
2022/05/10 00:36:31;;;;;;;12.75;8.70;;;13.80;99.90;;;;;;5114191;28;20042;-74
2022/05/10 00:38:57;;;;;;;13.90;9.45;;;13.80;99.90;;;;;;5114028;28;20067;-75
2022/05/10 00:41:32;;;;;;;12.15;8.85;;;13.80;99.90;;;;;;5095372;28;20073;-76
2022/05/10 00:44:17;;;;;;;18.90;9.70;;;13.70;99.90;;;;;;5095628;28;20115;-74
2022/05/10 00:46:56;;;;;;;13.90;9.60;;;13.70;99.90;;;;;;5095913;28;20375;-74
2022/05/10 00:49:29;;;;;;;15.68;8.88;;;13.70;99.90;;;;;;5113911;28;20032;-75
2022/05/10 00:52:12;;;;;;;17.83;9.93;;;13.70;99.90;;;;;;5114181;28;20031;-73
2022/05/10 00:54:52;;;;;;;29.08;11.05;;;13.60;99.90;;;;;;5113859;28;20532;-74
2022/05/10 00:57:17;;;;;;;16.75;11.05;;;13.60;99.90;;;;;;5113822;28;20118;-73
2022/05/10 00:59:49;;;;;;;15.18;10.30;;;;;;;;;;5113490;28;20070;-73
2022/05/10 01:02:24;;;;;;;16.75;10.48;;;;;;;;;;5095534;28;20012;-73
2022/05/10 01:04:53;;;;;;;26.65;10.73;;;;;;;;;;5113373;28;20080;-74
2022/05/10 01:07:26;;;;;;;21.70;10.88;;;13.50;99.90;;;;;;5095213;28;20028;-73
2022/05/10 01:10:01;;;;;;;16.45;10.25;;;13.40;99.90;;;;;;5095422;28;20038;-73
2022/05/10 01:12:39;;;;;;;16.45;10.43;;;13.40;99.90;;;;;;5113627;28;20024;-73
2022/05/10 01:15:10;;;;;;;16.75;10.98;;;13.40;99.90;;;;;;5113438;28;20046;-73
2022/05/10 01:17:36;;;;;;;18.30;10.25;;;13.40;99.90;;;;;;5095086;28;20031;-73
2022/05/10 01:20:04;;;;;;;18.15;11.43;;;13.40;99.90;;;;;;5113515;28;20084;-72
2022/05/10 01:22:33;;;;;;;15.90;10.13;;;13.40;99.90;;;;;;5113494;28;20043;-72
2022/05/10 01:25:17;;;;;;;20.42;10.63;;;13.40;99.90;;;;;;5095131;28;20083;-73
2022/05/10 01:28:04;;;;;;;15.90;10.55;;;13.30;99.90;;;;;;5095060;28;20050;-72
2022/05/10 01:30:31;;;;;;;15.35;9.95;;;13.30;99.90;;;;;;5095166;28;20114;-73
2022/05/10 01:35:56;;;;;;;15.00;10.73;;;13.30;99.90;;;;;;5113122;28;20039;-72
2022/05/10 01:38:32;;;;;;;26.45;12.25;;;13.30;99.90;;;;;;5113379;28;20052;-73
2022/05/10 01:41:09;;;;;;;16.27;11.68;;;13.20;99.90;;;;;;5113354;28;20060;-73
2022/05/10 01:43:35;;;;;;;18.63;10.93;;;13.20;99.90;;;;;;5113368;28;20403;-73
2022/05/10 01:46:10;;;;;;;21.48;11.05;;;13.20;99.90;;;;;;5113646;28;20156;-73
2022/05/10 01:48:38;;;;;;;23.40;11.75;;;13.20;99.90;;;;;;5095013;28;20085;-73
2022/05/10 01:51:09;;;;;;;23.33;11.52;;;13.20;99.90;;;;;;5113238;28;20055;-73
2022/05/10 01:53:38;;;;;;;18.52;11.75;;;13.20;99.90;;;;;;5094684;28;20028;-71
2022/05/10 01:56:11;;;;;;;19.30;11.23;;;13.10;99.90;;;;;;5094934;28;20036;-70
2022/05/10 01:58:40;;;;;;;18.17;10.73;;;13.10;99.90;;;;;;5094896;28;20039;-74
2022/05/10 02:01:27;;;;;;;21.90;11.13;;;13.10;99.90;;;;;;5113378;28;20073;-72
2022/05/10 02:04:15;;;;;;;22.92;11.23;;;13.10;99.90;;;;;;5095289;28;20039;-72
2022/05/10 02:07:00;;;;;;;25.20;11.05;;;13.00;99.90;;;;;;5094765;28;20487;-72
2022/05/10 02:09:45;;;;;;;19.77;10.68;;;13.00;99.90;;;;;;5094863;28;20030;-74
2022/05/10 02:12:24;;;;;;;17.48;10.57;;;13.00;99.90;;;;;;5113363;28;20020;-72
2022/05/10 02:15:00;;;;;;;18.48;11.15;;;12.90;99.90;;;;;;5113094;28;20077;-73
2022/05/10 02:17:41;;;;;;;16.50;10.77;;;12.90;99.90;;;;;;5113067;28;20464;-73
2022/05/10 02:20:19;;;;;;;16.83;10.80;;;12.90;99.90;;;;;;5112970;28;20043;-73
2022/05/10 02:23:14;;;;;;;16.45;11.13;;;12.80;99.90;;;;;;5094738;28;20264;-73
2022/05/10 02:25:44;;;;;;;13.82;11.05;;;12.80;99.90;;;;;;5112760;28;20055;-74
2022/05/10 02:28:29;;;;;;;19.17;12.00;;;12.80;99.90;;;;;;5116006;28;20039;-74
2022/05/10 02:30:59;;;;;;;13.40;10.57;;;12.70;99.90;;;;;;5098343;28;20460;-75
2022/05/10 02:33:26;;;;;;;14.82;11.48;;;12.80;99.90;;;;;;5098147;28;20035;-75
2022/05/10 02:35:56;;;;;;;14.93;10.82;;;12.80;99.90;;;;;;5116779;28;20115;-74
2022/05/10 02:38:34;;;;;;;17.50;11.27;;;12.70;99.90;;;;;;5098017;28;20503;-75
2022/05/10 02:41:04;;;;;;;13.10;11.18;;;12.70;99.90;;;;;;5116441;28;20024;-74
2022/05/10 02:43:36;;;;;;;16.92;10.73;;;12.70;99.90;;;;;;5116392;28;20031;-74
2022/05/10 02:46:03;;;;;;;20.23;11.18;;;12.70;99.90;;;;;;5097972;28;20108;-73
2022/05/10 02:48:37;;;;;;;18.00;12.07;;;12.70;99.90;;;;;;5097783;28;20027;-72
2022/05/10 02:51:04;;;;;;;21.02;11.70;;;12.60;99.90;;;;;;5097765;28;20024;-73
2022/05/10 02:53:31;;;;;;;23.65;11.23;;;12.60;99.90;;;;;;5116167;28;20031;-73
2022/05/10 02:56:02;;;;;;;22.42;11.75;;;12.60;99.90;;;;;;5116154;28;20486;-74
2022/05/10 02:58:44;;;;;;;;;;;12.60;99.90;;;;;;5116438;28;20030;-71
2022/05/10 03:01:39;;;;;;;17.33;10.35;;;12.60;99.90;;;;;;5116007;28;19911;-73
2022/05/10 03:04:07;;;;;;;18.95;11.43;;;12.60;99.90;;;;;;5068080;28;20046;-73
2022/05/10 03:06:36;;;;;;;24.27;12.52;;;12.60;99.90;;;;;;5097517;28;20024;-73
2022/05/10 03:09:03;;;;;;;20.85;11.70;;;12.60;99.90;;;;;;5097240;28;20032;-73
2022/05/10 03:11:29;;;;;;;18.77;11.68;;;12.50;99.90;;;;;;5097455;28;20468;-73
2022/05/10 03:13:56;;;;;;;21.55;12.20;;;;;;;;;;5115733;28;20046;-74
2022/05/10 03:16:23;;;;;;;21.75;12.75;;;12.50;99.90;;;;;;5115675;28;20027;-75
2022/05/10 03:18:50;;;;;;;23.45;12.48;;;12.50;99.90;;;;;;5097303;28;20080;-75
2022/05/10 03:21:16;;;;;;;17.08;11.82;;;12.50;99.90;;;;;;5115846;28;20499;-75
2022/05/10 03:23:43;;;;;;;20.35;13.32;;;12.50;99.90;;;;;;5115537;28;20035;-75
2022/05/10 03:26:11;;;;;;;21.35;12.57;;;12.60;99.90;;;;;;5096978;28;20044;-76
2022/05/10 03:28:37;;;;;;;16.52;12.02;;;12.60;99.90;;;;;;5115353;28;20042;-75
2022/05/10 03:31:05;;;;;;;20.33;11.85;;;12.60;99.90;;;;;;5115676;28;20030;-75
2022/05/10 03:33:31;;;;;;;21.85;13.07;;;12.60;99.90;;;;;;5115369;28;20024;-75
2022/05/10 03:35:57;;;;;;;23.58;12.25;;;12.60;99.90;;;;;;5096904;28;20503;-75
2022/05/10 03:38:23;;;;;;;18.50;12.57;;;12.60;99.90;;;;;;5115476;28;20023;-76
2022/05/10 03:40:49;;;;;;;21.13;11.90;;;12.70;99.90;;;;;;5115197;28;20024;-76
2022/05/10 03:43:14;;;;;;;21.77;12.88;;;12.60;99.90;;;;;;5115164;28;20384;-74
2022/05/10 03:45:40;;;;;;;15.90;11.95;;;12.60;99.90;;;;;;5115099;28;20024;-74
2022/05/10 03:48:06;;;;;;;17.92;12.13;;;12.60;99.90;;;;;;5096715;28;20067;-75
2022/05/10 03:50:32;;;;;;;18.13;12.05;;;12.60;99.90;;;;;;5114981;28;20030;-74
2022/05/10 03:52:58;;;;;;;18.10;12.15;;;12.60;99.90;;;;;;5096636;28;20031;-73
2022/05/10 03:55:26;;;;;;;18.52;12.57;;;12.60;99.90;;;;;;5114991;28;20030;-74
2022/05/10 03:57:52;;;;;;;17.75;12.77;;;12.60;99.90;;;;;;5096617;28;20028;-72
2022/05/10 04:00:28;;;;;;;20.13;12.45;;;12.60;99.90;;;;;;5114825;28;20016;-71
2022/05/10 04:02:56;;;;;;;19.52;12.10;;;12.60;99.90;;;;;;5114850;28;20023;-70
2022/05/10 04:05:23;;;;;;;24.25;13.45;;;12.70;99.90;;;;;;5096375;28;20024;-72
2022/05/10 04:07:50;;;;;;;16.23;12.95;;;12.70;99.90;;;;;;5114639;28;20040;-72
2022/05/10 04:10:16;;;;;;;23.52;12.23;;;12.80;99.90;;;;;;5114365;28;20448;-74
2022/05/10 04:12:42;;;;;;;20.77;12.07;;;12.90;99.90;;;;;;5114845;28;20027;-74
2022/05/10 04:15:12;;;;;;;21.40;12.30;;;12.90;99.90;;;;;;5114515;28;20030;-72
2022/05/10 04:17:38;;;;;;;20.58;11.98;;;13.00;99.90;;;;;;5095920;28;20031;-74
2022/05/10 04:20:06;;;;;;;17.15;13.38;;;13.20;99.90;;;;;;5096089;28;20077;-74
2022/05/10 04:22:33;;;;;;;25.08;12.52;;;;;;;;;;5114400;28;20504;-74
2022/05/10 04:24:59;;;;;;;13.90;11.02;;;13.50;99.90;;;;;;5114341;28;20058;-74
2022/05/10 04:27:25;;;;;;;17.50;11.52;;;13.50;99.90;;;;;;5114409;28;20075;-73
2022/05/10 04:29:50;;;;;;;20.33;12.15;;;13.70;99.90;;;;;;5114274;28;20055;-73
2022/05/10 04:32:16;;;;;;;18.25;11.93;;;13.80;99.90;;;;;;5114481;28;20417;-74
2022/05/10 04:34:42;;;;;;;17.20;12.95;;;13.90;99.90;;;;;;5114189;28;20103;-73
2022/05/10 04:37:08;;;;;;;22.13;11.68;;;14.00;99.90;;;;;;5095937;28;20130;-71
2022/05/10 04:42:18;;;;;;;15.57;11.70;;;14.20;99.90;;;;;;5113856;28;20038;-66
2022/05/10 04:44:44;;;;;;;16.08;12.25;;;14.30;99.90;;;;;;5114012;28;20061;-67
2022/05/10 04:47:10;;;;;;;18.33;11.23;;;14.40;99.90;;;;;;5095562;28;20035;-67
2022/05/10 04:49:35;;;;;;;24.60;11.38;;;14.50;99.90;;;;;;5113488;28;20030;-67
2022/05/10 04:52:02;;;;;;;18.38;11.10;;;14.60;99.90;;;;;;5095578;28;20452;-66
2022/05/10 04:54:28;;;;;;;16.85;10.07;;;14.80;99.90;;;;;;5113645;28;20035;-69
2022/05/10 04:56:54;;;;;;;16.10;10.43;;;14.80;99.90;;;;;;5113813;28;20023;-70
2022/05/10 04:59:19;;;;;;;18.50;10.88;;;14.90;99.90;;;;;;5113717;28;20039;-69
2022/05/10 05:01:46;;;;;;;15.93;10.68;;;15.00;99.90;;;;;;5113690;28;20452;-70
2022/05/10 05:04:11;;;;;;;14.75;10.13;;;15.00;99.90;;;;;;5092282;28;20452;-71
2022/05/10 05:06:40;;;;;;;15.68;10.85;;;15.00;99.90;;;;;;5086079;28;20071;-70
2022/05/10 05:09:07;;;;;;;19.20;10.27;;;15.00;99.90;;;;;;5093279;28;20153;-69
2022/05/10 05:11:33;;;;;;;14.07;10.20;;;15.00;99.90;;;;;;5093062;28;20024;-68
2022/05/10 05:13:59;;;;;;;16.95;10.65;;;15.00;99.90;;;;;;5093094;28;20453;-68
2022/05/10 05:16:25;;;;;;;16.92;11.43;;;15.00;99.90;;;;;;5092740;28;20107;-68
2022/05/10 05:18:51;;;;;;;13.35;10.10;;;15.10;99.90;;;;;;5092800;28;20423;-68
2022/05/10 05:21:17;;;;;;;19.83;10.23;;;15.20;99.90;;;;;;5093054;28;20050;-69
2022/05/10 05:23:43;;;;;;;18.02;11.70;;;15.30;99.90;;;;;;5074711;28;20449;-69
2022/05/10 05:26:10;;;;;;;15.02;10.52;;;15.50;99.90;;;;;;5074269;28;20123;-68
2022/05/10 05:28:36;;;;;;;14.68;10.00;;;15.40;99.90;;;;;;5092725;28;20047;-68
2022/05/10 05:31:03;;;;;;;18.08;10.23;;;15.40;99.90;;;;;;5092908;28;20032;-67
2022/05/10 05:33:28;;;;;;;18.40;10.80;;;15.40;99.90;;;;;;5092842;28;20054;-68
2022/05/10 05:35:54;;;;;;;20.77;11.23;;;15.40;99.90;;;;;;5100293;28;20060;-68
2022/05/10 05:38:20;;;;;;;15.35;10.88;;;15.40;99.90;;;;;;5102754;28;20039;-68
2022/05/10 05:40:46;;;;;;;18.63;10.52;;;15.30;99.90;;;;;;5092454;28;20024;-68
2022/05/10 05:43:20;;;;;;;20.80;11.60;;;15.20;99.90;;;;;;5092985;28;20020;-68
2022/05/10 05:45:47;;;;;;;22.10;11.85;;;15.20;99.90;;;;;;5092561;28;20021;-67
2022/05/10 05:48:13;;;;;;;17.90;11.05;;;15.20;99.90;;;;;;5092541;28;20043;-67
2022/05/10 05:50:39;;;;;;;16.70;10.95;;;15.10;99.90;;;;;;5074428;28;20380;-67
2022/05/10 05:53:05;;;;;;;19.90;11.00;;;15.10;99.90;;;;;;5092583;28;20066;-68
2022/05/10 05:55:31;;;;;;;15.90;11.43;;;15.10;99.90;;;;;;5092686;28;20063;-67
2022/05/10 05:58:00;;;;;;;23.95;11.50;;;15.10;99.90;;;;;;5074446;28;20102;-67
2022/05/10 06:00:26;;;;;;;15.32;11.00;;;15.10;99.90;;;;;;5074439;28;20035;-67
2022/05/10 06:02:52;;;;;;;22.80;11.23;;;15.20;99.90;;;;;;5095472;28;20027;-67
2022/05/10 06:05:20;;;;;;;19.15;10.88;;;15.20;99.90;;;;;;5096732;28;20115;-67
2022/05/10 06:07:46;;;;;;;16.05;10.90;;;15.20;99.90;;;;;;5078081;28;20165;-67
2022/05/10 06:10:12;;;;;;;17.40;10.43;;;15.30;99.90;;;;;;5096410;28;20099;-67
2022/05/10 06:12:39;;;;;;;18.55;10.90;;;15.40;99.90;;;;;;5096060;28;20400;-67
2022/05/10 06:15:10;;;;;;;17.60;10.50;;;15.50;99.90;;;;;;5096232;28;20024;-67
2022/05/10 06:17:37;;;;;;;;;;;15.70;99.90;;;;;;5078398;28;20031;-66
2022/05/10 06:20:04;;;;;;;16.55;11.15;;;15.90;99.90;;;;;;5096382;28;19904;-66
2022/05/10 06:22:30;;;;;;;14.63;11.13;;;16.00;99.90;;;;;;5096183;28;20381;-66
2022/05/10 06:24:56;;;;;;;19.83;10.45;;;16.10;99.90;;;;;;5096253;28;20028;-67
2022/05/10 06:27:22;;;;;;;15.00;10.50;;;16.20;99.90;;;;;;5077388;28;20052;-67
2022/05/10 06:29:49;;;;;;;17.88;10.23;;;16.20;99.90;;;;;;5077857;28;20028;-66
2022/05/10 06:32:23;;;;;;;18.00;10.68;;;16.40;99.90;;;;;;5096086;28;20028;-67
2022/05/10 06:34:50;;;;;;;22.38;11.43;;;16.60;99.90;;;;;;5077844;28;20028;-66
2022/05/10 06:40:11;;;;;;;13.43;9.43;;;17.00;99.90;;;;;;5098315;28;20035;-66
2022/05/10 06:42:37;;;;;;;15.73;9.75;;;17.30;99.90;;;;;;5077764;28;20059;-66
2022/05/10 06:45:08;;;;;;;18.98;10.27;;;17.40;99.90;;;;;;5096078;28;20020;-66
2022/05/10 06:47:38;;;;;;;16.80;9.88;;;17.50;99.90;;;;;;5093137;28;20036;-65
2022/05/10 06:50:06;;;;;;;14.30;9.68;;;17.50;99.90;;;;;;5094284;28;20020;-66
2022/05/10 06:52:32;;;;;;;11.80;8.70;;;17.70;99.90;;;;;;5095543;28;20472;-65
2022/05/10 06:54:58;;;;;;;11.75;10.48;;;17.80;99.90;;;;;;5095332;28;20028;-66
2022/05/10 06:57:24;;;;;;;16.63;10.27;;;17.80;99.90;;;;;;5093777;28;20050;-66
2022/05/10 06:59:50;;;;;;;15.68;9.80;;;17.80;99.90;;;;;;5094292;28;20032;-66
2022/05/10 07:02:16;;;;;;;14.98;10.05;;;17.80;99.90;;;;;;5095482;28;20028;-66
2022/05/10 07:04:42;;;;;;;13.75;9.90;;;;;;;;;;5095352;28;20024;-66
2022/05/10 07:07:08;;;;;;;14.70;10.15;;;18.00;99.90;;;;;;5095182;28;20043;-66
2022/05/10 07:09:33;;;;;;;13.43;8.68;;;18.10;99.90;;;;;;5095246;28;20028;-67
2022/05/10 07:11:59;;;;;;;15.13;8.82;;;18.20;99.90;;;;;;5094950;28;20020;-66
2022/05/10 07:14:25;;;;;;;18.08;9.88;;;18.30;99.90;;;;;;5093610;28;20032;-66
2022/05/10 07:16:51;;;;;;;15.35;9.18;;;18.20;99.90;;;;;;5095245;28;20089;-71
2022/05/10 07:19:16;;;;;;;14.65;8.93;;;18.10;99.90;;;;;;5093911;28;20027;-71
2022/05/10 07:21:43;;;;;;;13.75;8.93;;;18.10;99.90;;;;;;5094898;28;20079;-71
2022/05/10 07:24:09;;;;;;;18.15;9.80;;;18.00;99.90;;;;;;5094929;28;20028;-71
2022/05/10 07:26:34;;;;;;;15.50;8.65;;;18.00;99.90;;;;;;5094638;28;20058;-71
2022/05/10 07:29:00;;;;;;;16.83;9.45;;;18.10;99.90;;;;;;5094872;28;20075;-71
2022/05/10 07:31:26;;;;;;;20.02;9.10;;;18.20;99.90;;;;;;5094837;28;20016;-71
2022/05/10 07:33:52;;;;;;;16.42;10.27;;;18.20;99.90;;;;;;5094699;28;20480;-71
2022/05/10 07:36:23;;;;;;;16.23;8.52;;;18.20;99.90;;;;;;5094625;28;20028;-70
2022/05/10 07:38:49;;;;;;;;;;;18.20;99.90;;;;;;5093882;28;20173;-70
2022/05/10 07:41:18;;;;;;;25.60;10.68;;;18.20;99.90;;;;;;5094710;28;20006;-70
2022/05/10 07:43:44;;;;;;;16.23;11.07;;;18.30;99.90;;;;;;5094617;28;20460;-71
2022/05/10 07:46:10;;;;;;;14.23;9.60;;;18.30;99.90;;;;;;5092870;28;20034;-72
2022/05/10 07:48:36;;;;;;;13.43;9.50;;;18.40;99.90;;;;;;5092979;28;20153;-71
2022/05/10 07:51:03;;;;;;;26.52;11.73;;;18.50;99.90;;;;;;5093578;28;20020;-72
2022/05/10 07:53:31;;;;;;;15.15;9.38;;;18.60;99.90;;;;;;5094796;28;20019;-73
2022/05/10 07:55:57;;;;;;;12.32;8.80;;;18.80;99.90;;;;;;5105536;28;20077;-70
2022/05/10 07:58:23;;;;;;;13.88;9.80;;;18.80;99.90;;;;;;5094229;28;20032;-72
2022/05/10 08:00:49;;;;;;;12.27;8.88;;;18.90;99.90;;;;;;5076069;28;20028;-72
2022/05/10 08:03:20;;;;;;;11.57;9.13;;;19.10;99.90;;;;;;5093953;28;20029;-72
2022/05/10 08:05:47;;;;;;;16.95;9.13;;;19.20;99.90;;;;;;5076131;28;20035;-73
2022/05/10 08:08:17;;;;;;;13.90;9.68;;;19.40;99.90;;;;;;5093603;28;20044;-73
2022/05/10 08:10:44;;;;;;;12.82;9.10;;;19.50;99.90;;;;;;5094107;28;20028;-72
2022/05/10 08:13:18;;;;;;;14.35;9.02;;;19.60;99.90;;;;;;5093763;28;20024;-72
2022/05/10 08:15:45;;;;;;;9.55;8.50;;;19.60;99.90;;;;;;5076077;28;20376;-71
2022/05/10 08:18:11;;;;;;;12.13;8.68;;;19.70;99.90;;;;;;5094060;28;20526;-74
2022/05/10 08:20:38;;;;;;;9.10;7.80;;;19.80;99.90;;;;;;5093874;28;20035;-74
2022/05/10 08:23:06;;;;;;;10.65;7.05;;;20.00;99.90;;;;;;5074019;28;20067;-71
2022/05/10 08:25:35;;;;;;;13.48;7.70;;;20.40;99.90;;;;;;5092228;28;20051;-71
2022/05/10 08:28:01;;;;;;;10.55;7.60;;;20.70;99.90;;;;;;5093803;28;20390;-72
2022/05/10 08:30:27;;;;;;;12.95;8.20;;;20.80;99.90;;;;;;5106496;28;20376;-73
2022/05/10 08:32:53;;;;;;;14.93;7.55;;;20.90;99.90;;;;;;5113872;28;20020;-73
2022/05/10 08:35:19;;;;;;;12.70;8.25;;;20.90;99.90;;;;;;5113983;28;20566;-73
2022/05/10 08:37:45;;;;;;;13.80;8.88;;;21.10;99.90;;;;;;5113974;28;20388;-70
2022/05/10 08:40:34;;;;;;;12.68;8.80;;;21.10;99.90;;;;;;5112274;28;20027;-75
2022/05/10 08:43:05;;;;;;;10.20;8.60;;;21.30;99.90;;;;;;5113461;28;20418;-72
2022/05/10 08:45:37;;;;;;;12.85;9.02;;;21.40;99.90;;;;;;5109270;28;20023;-73
2022/05/10 08:48:03;;;;;;;21.75;10.57;;;21.50;99.90;;;;;;5093437;28;20032;-73
2022/05/10 08:50:29;;;;;;;15.05;9.50;;;21.50;99.90;;;;;;5093494;28;20111;-74
2022/05/10 08:52:55;;;;;;;14.18;8.43;;;21.70;99.90;;;;;;5093370;28;20377;-71
2022/05/10 08:55:26;;;;;;;12.68;8.85;;;21.70;99.90;;;;;;5093300;28;20020;-72
2022/05/10 08:58:17;;;;;;;21.77;10.38;;;21.80;99.90;;;;;;5093341;28;20028;-72
2022/05/10 09:00:50;;;;;;;14.73;8.73;;;21.90;99.90;;;;;;5045581;28;20557;-73
2022/05/10 09:03:33;;;;;;;14.43;8.95;;;21.90;99.90;;;;;;5092873;28;20797;-71
2022/05/10 09:06:05;;;;;;;14.13;9.20;;;21.80;99.90;;;;;;5093712;28;20357;-71
2022/05/10 09:08:52;;;;;;;16.77;9.65;;;21.90;99.90;;;;;;5092857;28;20043;-73
2022/05/10 09:11:19;;;;;;;13.93;9.15;;;22.00;99.90;;;;;;5093007;28;20030;-72
2022/05/10 09:13:45;;;;;;;15.75;9.38;;;21.90;99.90;;;;;;5092926;28;20082;-72
2022/05/10 09:16:13;;;;;;;15.32;9.07;;;21.70;99.90;;;;;;5093044;28;20028;-72
2022/05/10 09:18:45;;;;;;;11.82;8.85;;;21.60;99.90;;;;;;5092821;28;20028;-72
2022/05/10 09:21:19;;;;;;;12.93;9.15;;;21.50;99.90;;;;;;5092120;28;20024;-73
2022/05/10 09:24:19;;;;;;;11.80;9.35;;;21.50;99.90;;;;;;5092892;28;20028;-72
2022/05/10 09:26:53;;;;;;;16.60;10.05;;;21.50;99.90;;;;;;5074256;28;20501;-70
2022/05/10 09:29:31;;;;;;;11.43;8.43;;;21.60;99.90;;;;;;5074812;28;20038;-71
2022/05/10 09:34:54;;;;;;;11.43;8.55;;;21.70;99.90;;;;;;5092931;28;20039;-72
2022/05/10 09:37:25;;;;;;;13.82;7.70;;;21.70;99.90;;;;;;5096790;28;20024;-72
2022/05/10 09:39:56;;;;;;;17.00;8.38;;;21.70;99.90;;;;;;5096948;28;20484;-71
2022/05/10 09:42:25;;;;;;;;;;;21.60;99.90;;;;;;5097359;28;20024;-72
2022/05/10 09:45:16;;;;;;;12.93;9.00;;;21.60;99.90;;;;;;5096906;28;19911;-72
2022/05/10 09:48:08;;;;;;;13.50;10.80;;;21.60;99.90;;;;;;5078422;28;20032;-72
2022/05/10 09:50:41;;;;;;;11.93;9.20;;;21.60;99.90;;;;;;5096875;28;20039;-72
2022/05/10 09:53:12;;;;;;;12.15;9.50;;;21.50;99.90;;;;;;5097024;28;20036;-72
2022/05/10 09:55:40;;;;;;;;;;;21.50;99.90;;;;;;5097057;28;20452;-70
2022/05/10 09:58:23;;;;;;;14.80;8.70;;;21.50;99.90;;;;;;5096495;28;19940;-72
2022/05/10 10:00:54;;;;;;;16.75;11.13;;;21.40;99.90;;;;;;5078322;28;20119;-71
2022/05/10 10:03:38;;;;;;;11.73;8.82;;;21.30;99.90;;;;;;5078326;28;20118;-74
2022/05/10 10:06:36;;;;;;;11.23;6.75;;;21.30;99.90;;;;;;5096431;28;20024;-73
2022/05/10 10:09:02;;;;;;;9.80;7.57;;;21.40;99.90;;;;;;4994222;28;20054;-73
2022/05/10 10:11:32;;;;;;;9.45;7.50;;;21.40;99.90;;;;;;4994391;28;20113;-73
2022/05/10 10:14:06;;;;;;;14.43;8.02;;;21.50;99.90;;;;;;4994235;28;20125;-72
2022/05/10 10:16:47;;;;;;;10.13;7.50;;;21.50;99.90;;;;;;4994265;28;20026;-74
2022/05/10 10:19:28;;;;;;;10.68;8.02;;;21.50;99.90;;;;;;4994193;28;20057;-74
2022/05/10 10:22:06;;;;;;;14.77;7.95;;;21.60;99.90;;;;;;4994123;28;20510;-73
2022/05/10 10:24:44;;;;;;;10.98;7.97;;;21.50;99.90;;;;;;4994109;28;20042;-73
2022/05/10 10:27:17;;;;;;;10.40;6.97;;;21.60;99.90;;;;;;4993743;28;20538;-73
2022/05/10 10:29:51;;;;;;;11.73;7.78;;;21.70;99.90;;;;;;4993926;28;20089;-73
2022/05/10 10:32:25;;;;;;;11.82;6.80;;;21.70;99.90;;;;;;4994306;28;20034;-73
2022/05/10 10:35:04;;;;;;;8.82;6.50;;;21.80;99.90;;;;;;4994162;28;20595;-73
2022/05/10 10:37:41;;;;;;;11.13;5.85;;;21.90;99.90;;;;;;4993918;28;20042;-72
2022/05/10 10:40:33;;;;;;;10.05;5.65;;;22.10;99.90;;;;;;4993889;28;20073;-73
2022/05/10 10:43:28;;;;;;;6.25;5.53;;;22.30;99.90;;;;;;4951127;28;20046;-73
2022/05/10 10:46:17;;;;;;;9.85;6.35;;;22.60;99.90;;;;;;5095112;28;20140;-73
2022/05/10 10:48:42;;;;;;;8.15;5.20;;;22.90;99.90;;;;;;5094181;28;20074;-72
2022/05/10 10:51:09;;;;;;;6.15;4.65;;;23.10;99.90;;;;;;5095029;28;20060;-72
2022/05/10 10:53:37;;;;;;;8.38;4.00;;;23.20;99.90;;;;;;5095426;28;20077;-73
2022/05/10 10:56:21;;;;;;;7.60;4.68;;;23.30;99.90;;;;;;5095441;28;20107;-72
2022/05/10 10:59:32;;;;;;;6.18;5.13;;;23.30;99.90;;;;;;5095286;28;20035;-72
2022/05/10 11:02:01;;;;;;;9.35;5.07;;;;;;;;;;5095219;28;20036;-71
2022/05/10 11:05:04;;;;;;;5.65;4.60;;;24.20;98.50;;;;;;5095244;28;20016;-70
2022/05/10 11:08:00;;;;;;;8.15;5.22;;;24.90;97.70;;;;;;5095262;28;20032;-66
2022/05/10 11:10:39;;;;;;;8.52;5.07;;;;;;;;;;5095220;28;20417;-68
2022/05/10 11:13:15;;;;;;;6.90;4.22;;;25.50;96.70;;;;;;5095161;28;20024;-74
2022/05/10 11:16:08;;;;;;;8.85;4.72;;;26.90;93.60;;;;;;5094844;28;20024;-74
2022/05/10 11:18:44;;;;;;;6.80;4.63;;;27.00;94.10;;;;;;5094724;28;20024;-74
2022/05/10 11:21:19;;;;;;;5.57;4.47;;;28.80;90.30;;;;;;5095593;28;20024;-76
2022/05/10 11:24:00;;;;;;;6.03;4.00;;;28.60;88.10;;;;;;5094845;28;20028;-75
2022/05/10 11:26:32;;;;;;;7.57;4.00;;;28.70;87.30;;;;;;5103873;28;20059;-75
2022/05/10 11:29:29;;;;;;;8.15;3.70;;;30.50;90.20;;;;;;5115157;28;20044;-76
2022/05/10 11:32:14;;;;;;;4.57;4.10;;;30.30;80.10;;;;;;5108588;28;20039;-76
2022/05/10 11:35:05;;;;;;;9.95;7.05;;;30.50;80.30;;;;;;5115253;28;20111;-75
2022/05/10 11:37:43;;;;;;;10.00;8.63;;;30.80;93.80;;;;;;5115326;28;20032;-75
2022/05/10 11:40:39;;;;;;;8.23;4.78;;;30.80;80.60;;;;;;5115183;28;20027;-75
2022/05/10 11:43:12;;;;;;;7.25;5.75;;;30.70;77.20;;;;;;5096731;28;20023;-75
2022/05/10 11:45:52;;;;;;;10.70;5.53;;;30.80;79.60;;;;;;5115017;28;20026;-76
2022/05/10 11:48:22;;;;;;;9.93;5.18;;;31.00;77.10;;;;;;5114893;28;20035;-75
2022/05/10 11:53:47;;;;;;;5.18;4.68;;;31.50;74.90;;;;;;5114481;28;20066;-74
2022/05/10 11:56:13;;;;;;;11.27;4.55;;;31.90;73.30;;;;;;5113393;28;20027;-74
2022/05/10 11:58:39;;;;;;;6.15;4.43;;;32.60;69.40;;;;;;5093923;28;20032;-75
2022/05/10 12:01:12;;;;;;;8.02;5.03;;;32.40;70.00;;;;;;5095162;28;20107;-74
2022/05/10 12:03:44;;;;;;;6.20;4.75;;;32.20;70.30;;;;;;5094913;28;20028;-74
2022/05/10 12:06:24;;;;;;;10.05;4.35;;;32.90;71.70;;;;;;5114731;28;20039;-74
2022/05/10 12:08:58;;;;;;;4.70;4.30;;;33.50;80.10;;;;;;5114374;28;20028;-75
2022/05/10 12:11:34;;;;;;;7.40;4.68;;;33.50;68.60;;;;;;5096024;28;20369;-75
2022/05/10 12:22:58;;;;;;;7.93;3.13;;;33.90;61.30;;;;;;5088075;28;20039;-74
2022/05/10 12:25:57;;;;;;;6.13;4.10;;;33.60;61.10;;;;;;5090204;28;20016;-71
2022/05/10 12:28:46;;;;;;;6.25;4.57;;;33.00;64.40;;;;;;5093596;28;20086;-75
2022/05/10 12:31:50;;;;;;;5.43;4.25;;;33.80;64.60;;;;;;5075544;28;20024;-75
2022/05/10 12:34:49;;;;;;;7.82;4.40;;;33.10;65.40;;;;;;5093556;28;20084;-72
2022/05/10 12:37:32;;;;;;;6.30;4.45;;;32.80;65.80;;;;;;5075443;28;20620;-74
2022/05/10 12:40:10;;;;;;;7.30;4.88;;;32.00;68.60;;;;;;5093688;28;20031;-76
2022/05/10 12:42:38;;;;;;;7.03;4.78;;;32.10;67.10;;;;;;5093275;28;20089;-73
2022/05/10 12:45:32;;;;;;;6.43;4.35;;;34.20;67.80;;;;;;5075307;28;20425;-71
2022/05/10 12:48:07;;;;;;;6.82;4.57;;;34.50;66.30;;;;;;5075252;28;20454;-71
2022/05/10 12:50:46;;;;;;;5.80;4.65;;;35.90;63.30;;;;;;5098880;28;20040;-72
2022/05/10 12:54:07;;;;;;;6.05;4.10;;;35.90;61.90;;;;;;5085794;28;20042;-71
2022/05/10 12:57:06;;;;;;;8.02;4.05;;;35.70;60.80;;;;;;4990083;28;20034;-71
2022/05/10 12:59:55;;;;;;;4.68;3.97;;;32.70;62.80;;;;;;5093391;28;20039;-71
2022/05/10 13:02:22;;;;;;;6.82;3.80;;;32.00;63.90;;;;;;5093197;28;20028;-71
2022/05/10 13:04:53;;;;;;;8.55;5.10;;;30.40;68.90;;;;;;5093318;28;20070;-71
2022/05/10 13:07:19;;;;;;;19.85;3.65;;;;;;;;;;5093104;28;20040;-72
2022/05/10 13:09:54;;;;;;;9.93;3.83;;;;;;;;;;5092886;28;20021;-70
2022/05/10 13:12:22;;;;;;;13.55;4.20;;;;;;;;;;5092827;28;20101;-72
2022/05/10 13:14:54;;;;;;;8.63;3.67;;;29.90;69.20;;;;;;5093148;28;20036;-70
2022/05/10 13:17:22;;;;;;;11.82;3.80;;;;;;;;;;5093000;28;20024;-71
2022/05/10 13:19:48;;;;;;;11.23;4.05;;;;;;;;;;5092997;28;20027;-70
2022/05/10 13:22:21;;;;;;;13.32;5.78;;;;;;;;;;5092970;28;20036;-72
2022/05/10 13:24:48;;;;;;;17.83;6.85;;;;;;;;;;5093049;28;20020;-71
2022/05/10 13:27:29;;;;;;;11.13;3.75;;;27.70;73.60;;;;;;5092977;28;20052;-72
2022/05/10 13:30:02;;;;;;;12.00;3.63;;;25.30;75.00;;;;;;5092941;28;20050;-71